Time,TemperatureF,DewpointF,PressureIn,WindDirection,WindDirectionDegrees,WindSpeedMPH,WindSpeedGustMPH,Humidity,HourlyPrecipIn,Conditions,Clouds,dailyrainin,SolarRadiationWatts/m^2,SoftwareType,DateUTC
2013-02-20 00:00:00,24.1,15.1,29.93,NNW,348,6.0,6.0,68,0.00,,,0.28,0,Wunderground v.1.15,2013-02-20 05:00:00,
2013-02-20 00:04:00,24.0,15.0,29.93,West,271,5.0,6.0,68,0.00,,,0.28,0,Wunderground v.1.15,2013-02-20 05:04:00,
2013-02-20 00:06:00,23.9,15.2,29.93,West,272,4.0,6.0,69,0.00,,,0.00,0,Wunderground v.1.15,2013-02-20 05:06:00,
2013-02-20 00:12:00,23.8,16.1,29.93,NW,310,4.0,11.0,72,0.00,,,0.00,0,Wunderground v.1.15,2013-02-20 05:12:00,
2013-02-20 00:18:00,23.5,15.5,29.93,West,275,7.0,11.0,71,0.00,,,0.00,0,Wunderground v.1.15,2013-02-20 05:18:00,
2013-02-20 00:24:00,23.2,15.5,29.93,WNW,283,6.0,7.0,72,0.00,,,0.00,0,Wunderground v.1.15,2013-02-20 05:24:00,
2013-02-20 00:30:00,22.9,15.5,29.94,NW,311,4.0,4.0,73,0.00,,,0.00,0,Wunderground v.1.15,2013-02-20 05:30:00,
2013-02-20 00:36:00,22.9,16.2,29.94,NW,321,2.0,24.0,75,0.00,,,0.00,0,Wunderground v.1.15,2013-02-20 05:36:00,
2013-02-20 00:42:00,22.7,16.6,29.94,NW,320,2.0,24.0,77,0.00,,,0.00,0,Wunderground v.1.15,2013-02-20 05:42:00,
2013-02-20 00:48:00,22.5,16.7,29.94,West,273,3.0,24.0,78,0.00,,,0.00,0,Wunderground v.1.15,2013-02-20 05:48:00,
2013-02-20 00:54:00,22.3,16.8,29.94,WNW,296,4.0,24.0,79,0.00,,,0.00,0,Wunderground v.1.15,2013-02-20 05:54:00,
2013-02-20 01:00:00,22.2,16.7,29.94,NW,314,4.0,4.0,79,0.00,,,0.00,0,Wunderground v.1.15,2013-02-20 06:00:00,
2013-02-20 01:06:00,22.1,16.9,29.94,WNW,291,4.0,24.0,80,0.00,,,0.00,0,Wunderground v.1.15,2013-02-20 06:06:00,
2013-02-20 01:12:00,21.9,16.1,29.94,West,259,4.0,24.0,78,0.00,,,0.00,0,Wunderground v.1.15,2013-02-20 06:12:00,
2013-02-20 01:18:00,21.9,16.1,29.93,WNW,300,5.0,24.0,78,0.00,,,0.00,0,Wunderground v.1.15,2013-02-20 06:18:00,
2013-02-20 01:24:00,21.8,16.0,29.93,North,350,4.0,24.0,78,0.00,,,0.00,0,Wunderground v.1.15,2013-02-20 06:24:00,
2013-02-20 01:30:00,21.8,16.0,29.93,NW,317,3.0,3.0,78,0.00,,,0.00,0,Wunderground v.1.15,2013-02-20 06:30:00,
2013-02-20 01:36:00,21.8,16.0,29.94,NNW,346,2.0,24.0,78,0.00,,,0.00,0,Wunderground v.1.15,2013-02-20 06:36:00,
2013-02-20 01:42:00,21.7,16.2,29.94,West,267,3.0,24.0,79,0.00,,,0.00,0,Wunderground v.1.15,2013-02-20 06:42:00,
2013-02-20 01:48:00,21.7,16.2,29.94,West,265,3.0,24.0,79,0.00,,,0.00,0,Wunderground v.1.15,2013-02-20 06:48:00,
2013-02-20 01:54:00,21.7,16.5,29.94,WSW,246,3.0,24.0,80,0.00,,,0.00,0,Wunderground v.1.15,2013-02-20 06:54:00,
2013-02-20 02:00:00,21.6,16.7,29.95,NW,313,3.0,3.0,81,0.00,,,0.00,0,Wunderground v.1.15,2013-02-20 07:00:00,
2013-02-20 02:06:00,21.5,16.3,29.95,WNW,299,5.0,24.0,80,0.00,,,0.00,0,Wunderground v.1.15,2013-02-20 07:06:00,
2013-02-20 02:12:00,21.6,16.1,29.95,WSW,238,6.0,12.0,79,0.00,,,0.00,0,Wunderground v.1.15,2013-02-20 07:12:00,
2013-02-20 02:18:00,21.6,15.5,29.95,NNW,338,6.0,24.0,77,0.00,,,0.00,0,Wunderground v.1.15,2013-02-20 07:18:00,
2013-02-20 02:24:00,21.6,15.5,29.95,West,269,6.0,24.0,77,0.00,,,0.00,0,Wunderground v.1.15,2013-02-20 07:24:00,
2013-02-20 02:30:00,21.5,15.4,29.95,WSW,250,5.0,24.0,77,0.00,,,0.00,0,Wunderground v.1.15,2013-02-20 07:30:00,
2013-02-20 02:36:00,21.5,15.4,29.95,NW,326,6.0,24.0,77,0.00,,,0.00,0,Wunderground v.1.15,2013-02-20 07:36:00,
2013-02-20 02:42:00,21.4,15.6,29.96,WNW,292,5.0,24.0,78,0.00,,,0.00,0,Wunderground v.1.15,2013-02-20 07:42:00,
2013-02-20 02:48:00,21.3,15.5,29.96,NW,307,5.0,24.0,78,0.00,,,0.00,0,Wunderground v.1.15,2013-02-20 07:48:00,
2013-02-20 02:54:00,20.9,14.2,29.96,NNW,328,7.0,24.0,75,0.00,,,0.00,0,Wunderground v.1.15,2013-02-20 07:54:00,
2013-02-20 03:00:00,20.5,13.5,29.97,NNE,27,7.0,24.0,74,0.00,,,0.00,0,Wunderground v.1.15,2013-02-20 08:00:00,
2013-02-20 03:06:00,20.1,13.4,29.97,WNW,286,7.0,24.0,75,0.00,,,0.00,0,Wunderground v.1.15,2013-02-20 08:06:00,
2013-02-20 03:12:00,19.9,13.3,29.97,NNW,338,7.0,24.0,75,0.00,,,0.00,0,Wunderground v.1.15,2013-02-20 08:12:00,
2013-02-20 03:18:00,19.7,13.1,29.97,West,264,7.0,24.0,75,0.00,,,0.00,0,Wunderground v.1.15,2013-02-20 08:18:00,
2013-02-20 03:24:00,19.6,12.3,29.97,NNW,348,8.0,9.0,73,0.00,,,0.00,0,Wunderground v.1.15,2013-02-20 08:24:00,
2013-02-20 03:30:00,19.4,11.8,29.97,NW,310,7.0,7.0,72,0.00,,,0.00,0,Wunderground v.1.15,2013-02-20 08:30:00,
2013-02-20 03:36:00,19.2,11.3,29.98,West,279,7.0,24.0,71,0.00,,,0.00,0,Wunderground v.1.15,2013-02-20 08:36:00,
2013-02-20 03:42:00,19.1,10.9,29.98,NW,319,6.0,24.0,70,0.00,,,0.00,0,Wunderground v.1.15,2013-02-20 08:42:00,
2013-02-20 03:48:00,19.0,10.8,29.98,WNW,300,5.0,24.0,70,0.00,,,0.00,0,Wunderground v.1.15,2013-02-20 08:48:00,
2013-02-20 03:54:00,19.0,10.8,29.98,WNW,302,4.0,24.0,70,0.00,,,0.00,0,Wunderground v.1.15,2013-02-20 08:54:00,
2013-02-20 04:00:00,19.0,10.8,29.98,West,280,4.0,4.0,70,0.00,,,0.00,0,Wunderground v.1.15,2013-02-20 09:00:00,
2013-02-20 04:06:00,19.0,10.8,29.98,WNW,301,5.0,24.0,70,0.00,,,0.00,0,Wunderground v.1.15,2013-02-20 09:06:00,
2013-02-20 04:12:00,19.0,10.8,29.98,West,278,6.0,24.0,70,0.00,,,0.00,0,Wunderground v.1.15,2013-02-20 09:12:00,
2013-02-20 04:18:00,18.9,10.4,29.98,WSW,252,4.0,24.0,69,0.00,,,0.00,0,Wunderground v.1.15,2013-02-20 09:18:00,
2013-02-20 04:24:00,18.8,10.3,29.98,West,279,5.0,24.0,69,0.00,,,0.00,0,Wunderground v.1.15,2013-02-20 09:24:00,
2013-02-20 04:30:00,18.6,9.8,29.99,West,263,7.0,7.0,68,0.00,,,0.00,0,Wunderground v.1.15,2013-02-20 09:30:00,
2013-02-20 04:36:00,18.5,9.0,29.99,NW,309,7.0,24.0,66,0.00,,,0.00,0,Wunderground v.1.15,2013-02-20 09:36:00,
2013-02-20 04:42:00,18.2,9.1,30.00,North,351,6.0,24.0,67,0.00,,,0.00,0,Wunderground v.1.15,2013-02-20 09:42:00,
2013-02-20 04:48:00,18.1,9.0,30.00,WSW,248,7.0,24.0,67,0.00,,,0.00,0,Wunderground v.1.15,2013-02-20 09:48:00,
2013-02-20 04:54:00,18.1,9.0,30.00,WSW,250,6.0,24.0,67,0.00,,,0.00,0,Wunderground v.1.15,2013-02-20 09:54:00,
2013-02-20 05:00:00,18.1,9.0,30.00,West,273,5.0,5.0,67,0.00,,,0.00,0,Wunderground v.1.15,2013-02-20 10:00:00,
2013-02-20 05:06:00,18.1,9.0,30.00,WNW,300,5.0,24.0,67,0.00,,,0.00,0,Wunderground v.1.15,2013-02-20 10:06:00,
2013-02-20 05:12:00,18.1,9.0,30.00,NNW,328,4.0,24.0,67,0.00,,,0.00,0,Wunderground v.1.15,2013-02-20 10:12:00,
2013-02-20 05:18:00,18.2,9.1,30.00,West,279,5.0,24.0,67,0.00,,,0.00,0,Wunderground v.1.15,2013-02-20 10:18:00,
2013-02-20 05:24:00,18.2,9.4,30.01,West,268,5.0,24.0,68,0.00,,,0.00,0,Wunderground v.1.15,2013-02-20 10:24:00,
2013-02-20 05:30:00,18.2,9.4,30.01,West,264,5.0,24.0,68,0.00,,,0.00,0,Wunderground v.1.15,2013-02-20 10:30:00,
2013-02-20 05:36:00,18.1,9.6,30.01,West,279,6.0,24.0,69,0.00,,,0.00,0,Wunderground v.1.15,2013-02-20 10:36:00,
2013-02-20 05:42:00,18.1,9.3,30.01,WSW,258,8.0,24.0,68,0.00,,,0.00,0,Wunderground v.1.15,2013-02-20 10:42:00,
2013-02-20 05:48:00,18.0,9.2,30.02,NW,310,6.0,24.0,68,0.00,,,0.00,0,Wunderground v.1.15,2013-02-20 10:48:00,
2013-02-20 05:54:00,17.9,9.1,30.02,West,268,5.0,24.0,68,0.00,,,0.00,0,Wunderground v.1.15,2013-02-20 10:54:00,
2013-02-20 06:00:00,17.8,9.3,30.02,West,261,6.0,6.0,69,0.00,,,0.00,0,Wunderground v.1.15,2013-02-20 11:00:00,
2013-02-20 06:06:00,17.7,9.2,30.02,NW,319,6.0,24.0,69,0.00,,,0.00,0,Wunderground v.1.15,2013-02-20 11:06:00,
2013-02-20 06:12:00,17.7,9.2,30.02,WNW,293,6.0,24.0,69,0.00,,,0.00,0,Wunderground v.1.15,2013-02-20 11:12:00,
2013-02-20 06:18:00,17.7,9.6,30.02,SSW,211,6.0,24.0,70,0.00,,,0.00,0,Wunderground v.1.15,2013-02-20 11:18:00,
2013-02-20 06:24:00,17.6,9.5,30.02,NW,314,6.0,24.0,70,0.00,,,0.00,0,Wunderground v.1.15,2013-02-20 11:24:00,
2013-02-20 06:30:00,17.6,9.5,30.02,SW,229,7.0,7.0,70,0.00,,,0.00,0,Wunderground v.1.15,2013-02-20 11:30:00,
2013-02-20 06:36:00,17.6,9.5,30.03,West,275,5.0,24.0,70,0.00,,,0.00,0,Wunderground v.1.15,2013-02-20 11:36:00,
2013-02-20 06:42:00,17.5,9.4,30.02,WNW,284,7.0,24.0,70,0.00,,,0.00,0,Wunderground v.1.15,2013-02-20 11:42:00,
2013-02-20 06:48:00,17.5,9.4,30.02,WNW,301,6.0,24.0,70,0.00,,,0.00,0,Wunderground v.1.15,2013-02-20 11:48:00,
2013-02-20 06:54:00,17.5,9.4,30.03,NNE,21,5.0,24.0,70,0.00,,,0.00,0,Wunderground v.1.15,2013-02-20 11:54:00,
2013-02-20 07:00:00,17.5,9.1,30.03,South,185,6.0,24.0,69,0.00,,,0.00,0,Wunderground v.1.15,2013-02-20 12:00:00,
2013-02-20 07:06:00,17.5,9.1,30.03,WSW,244,7.0,24.0,69,0.00,,,0.00,0,Wunderground v.1.15,2013-02-20 12:06:00,
2013-02-20 07:12:00,17.6,9.2,30.03,NE,47,6.0,24.0,69,0.00,,,0.00,5,Wunderground v.1.15,2013-02-20 12:12:00,
2013-02-20 07:18:00,17.6,9.2,30.03,WNW,294,6.0,24.0,69,0.00,,,0.00,12,Wunderground v.1.15,2013-02-20 12:18:00,
2013-02-20 07:24:00,17.7,8.9,30.03,WSW,258,6.0,24.0,68,0.00,,,0.00,14,Wunderground v.1.15,2013-02-20 12:24:00,
2013-02-20 07:30:00,17.7,8.9,30.03,WNW,297,6.0,24.0,68,0.00,,,0.00,14,Wunderground v.1.15,2013-02-20 12:30:00,
2013-02-20 07:36:00,17.8,9.3,30.03,West,271,6.0,24.0,69,0.00,,,0.00,21,Wunderground v.1.15,2013-02-20 12:36:00,
2013-02-20 07:42:00,17.7,9.6,30.03,WNW,290,6.0,24.0,70,0.00,,,0.00,26,Wunderground v.1.15,2013-02-20 12:42:00,
2013-02-20 07:48:00,17.7,9.9,30.04,South,177,6.0,24.0,71,0.00,,,0.00,37,Wunderground v.1.15,2013-02-20 12:48:00,
2013-02-20 07:54:00,17.7,10.5,30.04,WNW,289,5.0,24.0,73,0.00,,,0.00,56,Wunderground v.1.15,2013-02-20 12:54:00,
2013-02-20 08:00:00,17.7,11.1,30.05,SE,138,5.0,24.0,75,0.00,,,0.00,53,Wunderground v.1.15,2013-02-20 13:00:00,
2013-02-20 08:06:00,17.6,11.0,30.05,West,280,6.0,24.0,75,0.00,,,0.00,42,Wunderground v.1.15,2013-02-20 13:06:00,
2013-02-20 08:12:00,17.7,11.1,30.05,SW,225,5.0,24.0,75,0.00,,,0.00,62,Wunderground v.1.15,2013-02-20 13:12:00,
2013-02-20 08:18:00,17.7,11.1,30.04,NW,309,6.0,24.0,75,0.00,,,0.00,113,Wunderground v.1.15,2013-02-20 13:18:00,
2013-02-20 08:24:00,17.8,11.5,30.05,West,265,5.0,24.0,76,0.00,,,0.00,127,Wunderground v.1.15,2013-02-20 13:24:00,
2013-02-20 08:30:00,17.9,11.9,30.04,West,277,4.0,24.0,77,0.00,,,0.00,118,Wunderground v.1.15,2013-02-20 13:30:00,
2013-02-20 08:36:00,17.9,11.6,30.04,West,261,5.0,24.0,76,0.00,,,0.00,97,Wunderground v.1.15,2013-02-20 13:36:00,
2013-02-20 08:42:00,17.9,11.9,30.04,West,264,6.0,24.0,77,0.00,,,0.00,105,Wunderground v.1.15,2013-02-20 13:42:00,
2013-02-20 08:48:00,17.9,11.9,30.05,WSW,245,6.0,24.0,77,0.00,,,0.00,98,Wunderground v.1.15,2013-02-20 13:48:00,
2013-02-20 08:54:00,18.0,11.7,30.04,West,275,4.0,24.0,76,0.00,,,0.00,100,Wunderground v.1.15,2013-02-20 13:54:00,
2013-02-20 09:00:00,18.1,11.8,30.05,WNW,283,5.0,5.0,76,0.00,,,0.00,123,Wunderground v.1.15,2013-02-20 14:00:00,
2013-02-20 09:06:00,18.1,11.8,30.04,WSW,250,5.0,24.0,76,0.00,,,0.00,118,Wunderground v.1.15,2013-02-20 14:06:00,
2013-02-20 09:12:00,18.2,11.6,30.04,SW,223,6.0,24.0,75,0.00,,,0.00,116,Wunderground v.1.15,2013-02-20 14:12:00,
2013-02-20 09:18:00,18.3,11.7,30.04,WSW,254,7.0,24.0,75,0.00,,,0.00,151,Wunderground v.1.15,2013-02-20 14:18:00,
2013-02-20 09:24:00,18.5,11.9,30.04,NW,309,6.0,24.0,75,0.00,,,0.00,162,Wunderground v.1.15,2013-02-20 14:24:00,
2013-02-20 09:30:00,18.8,12.2,30.04,West,270,4.0,24.0,75,0.00,,,0.00,167,Wunderground v.1.15,2013-02-20 14:30:00,
2013-02-20 09:36:00,18.9,12.0,30.04,WSW,254,5.0,24.0,74,0.00,,,0.00,176,Wunderground v.1.15,2013-02-20 14:36:00,
2013-02-20 09:42:00,19.0,12.1,30.05,West,277,6.0,6.0,74,0.00,,,0.00,139,Wunderground v.1.15,2013-02-20 14:42:00,
2013-02-20 09:48:00,18.9,12.0,30.04,WNW,286,5.0,24.0,74,0.00,,,0.00,116,Wunderground v.1.15,2013-02-20 14:48:00,
2013-02-20 09:54:00,19.0,11.8,30.04,NW,321,5.0,24.0,73,0.00,,,0.00,118,Wunderground v.1.15,2013-02-20 14:54:00,
2013-02-20 10:00:00,19.2,12.0,30.05,West,273,6.0,6.0,73,0.00,,,0.00,167,Wunderground v.1.15,2013-02-20 15:00:00,
2013-02-20 10:06:00,19.3,12.1,30.05,NW,307,6.0,24.0,73,0.00,,,0.00,171,Wunderground v.1.15,2013-02-20 15:06:00,
2013-02-20 10:12:00,19.5,11.9,30.05,SSW,199,6.0,24.0,72,0.00,,,0.00,163,Wunderground v.1.15,2013-02-20 15:12:00,
2013-02-20 10:18:00,19.8,11.9,30.05,WSW,256,6.0,24.0,71,0.00,,,0.00,193,Wunderground v.1.15,2013-02-20 15:18:00,
2013-02-20 10:24:00,19.8,11.6,30.05,NW,320,6.0,24.0,70,0.00,,,0.00,160,Wunderground v.1.15,2013-02-20 15:24:00,
2013-02-20 10:30:00,20.0,11.8,30.05,West,267,6.0,6.0,70,0.00,,,0.00,151,Wunderground v.1.15,2013-02-20 15:30:00,
2013-02-20 10:36:00,20.1,11.6,30.05,NW,315,6.0,24.0,69,0.00,,,0.00,250,Wunderground v.1.15,2013-02-20 15:36:00,
2013-02-20 10:42:00,20.1,11.9,30.05,WSW,244,8.0,8.0,70,0.00,,,0.00,176,Wunderground v.1.15,2013-02-20 15:42:00,
2013-02-20 10:48:00,20.2,11.7,30.05,WNW,302,7.0,24.0,69,0.00,,,0.00,199,Wunderground v.1.15,2013-02-20 15:48:00,
2013-02-20 10:54:00,20.3,11.7,30.06,WSW,239,8.0,24.0,69,0.00,,,0.00,211,Wunderground v.1.15,2013-02-20 15:54:00,
2013-02-20 11:00:00,20.2,12.3,30.06,NW,308,8.0,8.0,71,0.00,,,0.00,188,Wunderground v.1.15,2013-02-20 16:00:00,
2013-02-20 11:06:00,20.2,13.2,30.06,NNW,342,7.0,24.0,74,0.00,,,0.00,279,Wunderground v.1.15,2013-02-20 16:06:00,
2013-02-20 11:12:00,20.2,13.5,30.06,West,280,7.0,24.0,75,0.00,,,0.00,327,Wunderground v.1.15,2013-02-20 16:12:00,
2013-02-20 11:18:00,20.9,13.9,30.06,WSW,242,6.0,24.0,74,0.00,,,0.00,633,Wunderground v.1.15,2013-02-20 16:18:00,
2013-02-20 11:24:00,21.4,14.1,30.06,WSW,258,5.0,24.0,73,0.00,,,0.00,670,Wunderground v.1.15,2013-02-20 16:24:00,
2013-02-20 11:30:00,21.7,14.7,30.06,WNW,296,6.0,6.0,74,0.00,,,0.00,415,Wunderground v.1.15,2013-02-20 16:30:00,
2013-02-20 11:36:00,21.7,13.1,30.06,NW,315,7.0,24.0,69,0.00,,,0.00,260,Wunderground v.1.15,2013-02-20 16:36:00,
2013-02-20 11:42:00,21.9,13.6,30.06,WSW,250,7.0,24.0,70,0.00,,,0.00,227,Wunderground v.1.15,2013-02-20 16:42:00,
2013-02-20 11:48:00,21.7,12.1,30.06,WNW,298,8.0,24.0,66,0.00,,,0.00,253,Wunderground v.1.15,2013-02-20 16:48:00,
2013-02-20 11:54:00,21.7,11.7,30.06,West,263,8.0,24.0,65,0.00,,,0.00,330,Wunderground v.1.15,2013-02-20 16:54:00,
2013-02-20 12:00:00,21.6,12.3,30.05,WSW,246,8.0,8.0,67,0.00,,,0.00,241,Wunderground v.1.15,2013-02-20 17:00:00,
2013-02-20 12:06:00,21.2,12.6,30.05,SSW,202,10.0,24.0,69,0.00,,,0.00,339,Wunderground v.1.15,2013-02-20 17:06:00,
2013-02-20 12:12:00,21.5,13.2,30.06,WNW,300,8.0,24.0,70,0.00,,,0.00,367,Wunderground v.1.15,2013-02-20 17:12:00,
2013-02-20 12:18:00,21.6,12.0,30.06,WNW,294,9.0,24.0,66,0.00,,,0.00,236,Wunderground v.1.15,2013-02-20 17:18:00,
2013-02-20 12:24:00,21.4,11.5,30.06,SSW,193,11.0,24.0,65,0.00,,,0.00,214,Wunderground v.1.15,2013-02-20 17:24:00,
2013-02-20 12:30:00,21.5,9.7,30.06,NNW,346,10.0,10.0,60,0.00,,,0.00,258,Wunderground v.1.15,2013-02-20 17:30:00,
2013-02-20 12:36:00,21.7,9.9,30.06,NNW,329,9.0,24.0,60,0.00,,,0.00,265,Wunderground v.1.15,2013-02-20 17:36:00,
2013-02-20 12:42:00,21.8,10.0,30.06,NW,315,9.0,16.0,60,0.00,,,0.00,292,Wunderground v.1.15,2013-02-20 17:42:00,
2013-02-20 12:48:00,22.0,10.6,30.06,NW,310,9.0,24.0,61,0.00,,,0.00,308,Wunderground v.1.15,2013-02-20 17:48:00,
2013-02-20 12:54:00,22.5,11.4,30.06,West,265,7.0,24.0,62,0.00,,,0.00,248,Wunderground v.1.15,2013-02-20 17:54:00,
2013-02-20 13:00:00,22.0,13.0,30.07,West,271,7.0,7.0,68,0.00,,,0.00,515,Wunderground v.1.15,2013-02-20 18:00:00,
2013-02-20 13:06:00,22.0,13.7,30.07,SW,226,7.0,24.0,70,0.00,,,0.00,417,Wunderground v.1.15,2013-02-20 18:06:00,
2013-02-20 13:12:00,22.1,12.5,30.06,WSW,246,6.0,24.0,66,0.00,,,0.00,271,Wunderground v.1.15,2013-02-20 18:12:00,
2013-02-20 13:18:00,22.1,12.8,30.06,West,269,7.0,24.0,67,0.00,,,0.00,243,Wunderground v.1.15,2013-02-20 18:18:00,
2013-02-20 13:24:00,21.7,14.1,30.07,NNW,331,7.0,24.0,72,0.00,,,0.00,265,Wunderground v.1.15,2013-02-20 18:24:00,
2013-02-20 13:30:00,21.6,14.3,30.07,NNW,331,7.0,24.0,73,0.00,,,0.00,297,Wunderground v.1.15,2013-02-20 18:30:00,
2013-02-20 13:36:00,22.1,14.1,30.07,NW,319,7.0,24.0,71,0.00,,,0.00,406,Wunderground v.1.15,2013-02-20 18:36:00,
2013-02-20 13:42:00,22.3,14.3,30.07,NNW,329,7.0,12.0,71,0.00,,,0.00,257,Wunderground v.1.15,2013-02-20 18:42:00,
2013-02-20 13:48:00,22.2,13.2,30.07,WSW,257,7.0,24.0,68,0.00,,,0.00,237,Wunderground v.1.15,2013-02-20 18:48:00,
2013-02-20 13:54:00,22.1,13.8,30.08,NW,317,8.0,24.0,70,0.00,,,0.00,244,Wunderground v.1.15,2013-02-20 18:54:00,
2013-02-20 14:00:00,21.3,15.5,30.08,North,351,6.0,6.0,78,0.00,,,0.00,104,Wunderground v.1.15,2013-02-20 19:00:00,
2013-02-20 14:06:00,20.2,15.0,30.09,West,265,8.0,24.0,80,0.00,,,0.00,141,Wunderground v.1.15,2013-02-20 19:06:00,
2013-02-20 14:12:00,20.7,14.6,30.08,West,266,8.0,24.0,77,0.00,,,0.00,450,Wunderground v.1.15,2013-02-20 19:12:00,
2013-02-20 14:18:00,21.1,13.5,30.09,West,263,7.0,24.0,72,0.00,,,0.00,221,Wunderground v.1.15,2013-02-20 19:18:00,
2013-02-20 14:24:00,22.1,13.8,30.09,WNW,300,7.0,24.0,70,0.00,,,0.00,664,Wunderground v.1.15,2013-02-20 19:24:00,
2013-02-20 14:30:00,22.4,13.8,30.08,NNW,331,7.0,7.0,69,0.00,,,0.00,557,Wunderground v.1.15,2013-02-20 19:30:00,
2013-02-20 14:36:00,22.8,13.5,30.08,West,270,6.0,24.0,67,0.00,,,0.00,202,Wunderground v.1.15,2013-02-20 19:36:00,
2013-02-20 14:42:00,22.8,12.1,30.08,West,269,6.0,24.0,63,0.00,,,0.00,160,Wunderground v.1.15,2013-02-20 19:42:00,
2013-02-20 14:48:00,22.9,11.8,30.09,NW,310,6.0,24.0,62,0.00,,,0.00,120,Wunderground v.1.15,2013-02-20 19:48:00,
2013-02-20 14:54:00,23.0,11.5,30.10,NW,306,5.0,24.0,61,0.00,,,0.00,144,Wunderground v.1.15,2013-02-20 19:54:00,
2013-02-20 15:00:00,22.4,11.0,30.10,NW,311,6.0,24.0,61,0.00,,,0.00,174,Wunderground v.1.15,2013-02-20 20:00:00,
2013-02-20 15:06:00,22.1,11.1,30.10,NW,326,8.0,24.0,62,0.00,,,0.00,151,Wunderground v.1.15,2013-02-20 20:06:00,
2013-02-20 15:12:00,22.1,10.3,30.11,West,265,7.0,24.0,60,0.00,,,0.00,144,Wunderground v.1.15,2013-02-20 20:12:00,
2013-02-20 15:18:00,22.2,10.4,30.10,NW,314,7.0,24.0,60,0.00,,,0.00,144,Wunderground v.1.15,2013-02-20 20:18:00,
2013-02-20 15:24:00,22.3,10.5,30.11,West,274,7.0,24.0,60,0.00,,,0.00,158,Wunderground v.1.15,2013-02-20 20:24:00,
2013-02-20 15:30:00,22.2,10.4,30.11,NNW,331,8.0,24.0,60,0.00,,,0.00,158,Wunderground v.1.15,2013-02-20 20:30:00,
2013-02-20 15:36:00,22.2,11.1,30.11,SW,223,8.0,24.0,62,0.00,,,0.00,153,Wunderground v.1.15,2013-02-20 20:36:00,
2013-02-20 15:42:00,21.8,11.5,30.12,WNW,293,9.0,24.0,64,0.00,,,0.00,165,Wunderground v.1.15,2013-02-20 20:42:00,
2013-02-20 15:48:00,21.6,10.9,30.12,NW,313,8.0,24.0,63,0.00,,,0.00,186,Wunderground v.1.15,2013-02-20 20:48:00,
2013-02-20 15:54:00,22.0,10.6,30.12,WNW,302,6.0,24.0,61,0.00,,,0.00,139,Wunderground v.1.15,2013-02-20 20:54:00,
2013-02-20 16:00:00,22.2,9.7,30.13,WSW,249,6.0,24.0,58,0.00,,,0.00,125,Wunderground v.1.15,2013-02-20 21:00:00,
2013-02-20 16:06:00,22.2,9.3,30.13,WNW,297,5.0,24.0,57,0.00,,,0.00,102,Wunderground v.1.15,2013-02-20 21:06:00,
2013-02-20 16:12:00,22.3,9.7,30.13,WNW,302,4.0,11.0,58,0.00,,,0.00,93,Wunderground v.1.15,2013-02-20 21:12:00,
2013-02-20 16:18:00,22.1,9.2,30.13,NW,305,4.0,24.0,57,0.00,,,0.00,76,Wunderground v.1.15,2013-02-20 21:18:00,
2013-02-20 16:24:00,22.0,9.1,30.13,NNW,341,5.0,24.0,57,0.00,,,0.00,63,Wunderground v.1.15,2013-02-20 21:24:00,
2013-02-20 16:30:00,21.8,9.3,30.14,NW,318,7.0,7.0,58,0.00,,,0.00,65,Wunderground v.1.15,2013-02-20 21:30:00,
2013-02-20 16:36:00,21.7,8.8,30.14,WNW,302,9.0,24.0,57,0.00,,,0.00,60,Wunderground v.1.15,2013-02-20 21:36:00,
2013-02-20 16:42:00,21.5,8.6,30.15,NW,319,10.0,24.0,57,0.00,,,0.00,54,Wunderground v.1.15,2013-02-20 21:42:00,
2013-02-20 16:48:00,21.4,8.9,30.16,WNW,299,9.0,24.0,58,0.00,,,0.00,47,Wunderground v.1.15,2013-02-20 21:48:00,
2013-02-20 16:54:00,21.3,8.4,30.16,NW,322,7.0,24.0,57,0.00,,,0.00,40,Wunderground v.1.15,2013-02-20 21:54:00,
2013-02-20 17:00:00,21.3,8.4,30.16,North,360,6.0,6.0,57,0.00,,,0.00,32,Wunderground v.1.15,2013-02-20 22:00:00,
2013-02-20 17:06:00,21.3,8.0,30.17,WNW,296,7.0,24.0,56,0.00,,,0.00,25,Wunderground v.1.15,2013-02-20 22:06:00,
2013-02-20 17:12:00,21.2,8.3,30.17,NNW,328,7.0,12.0,57,0.00,,,0.00,23,Wunderground v.1.15,2013-02-20 22:12:00,
2013-02-20 17:18:00,21.1,8.2,30.18,WNW,294,8.0,24.0,57,0.00,,,0.00,21,Wunderground v.1.15,2013-02-20 22:18:00,
2013-02-20 17:24:00,21.0,8.5,30.18,NW,319,8.0,24.0,58,0.00,,,0.00,18,Wunderground v.1.15,2013-02-20 22:24:00,
2013-02-20 17:30:00,21.0,8.9,30.19,WSW,257,7.0,24.0,59,0.00,,,0.00,11,Wunderground v.1.15,2013-02-20 22:30:00,
2013-02-20 17:36:00,20.9,9.2,30.19,NW,316,7.0,24.0,60,0.00,,,0.00,7,Wunderground v.1.15,2013-02-20 22:36:00,
2013-02-20 17:42:00,20.8,9.8,30.19,NNW,339,6.0,24.0,62,0.00,,,0.00,5,Wunderground v.1.15,2013-02-20 22:42:00,
2013-02-20 17:48:00,20.6,10.0,30.20,NW,325,6.0,24.0,63,0.00,,,0.00,0,Wunderground v.1.15,2013-02-20 22:48:00,
2013-02-20 17:54:00,20.4,10.5,30.20,West,271,6.0,24.0,65,0.00,,,0.00,0,Wunderground v.1.15,2013-02-20 22:54:00,
2013-02-20 18:00:00,20.3,10.7,30.20,WSW,245,4.0,24.0,66,0.00,,,0.00,0,Wunderground v.1.15,2013-02-20 23:00:00,
2013-02-20 18:06:00,20.2,11.3,30.20,WNW,286,5.0,24.0,68,0.00,,,0.00,0,Wunderground v.1.15,2013-02-20 23:06:00,
2013-02-20 18:12:00,20.0,11.5,30.21,NNW,348,5.0,24.0,69,0.00,,,0.00,0,Wunderground v.1.15,2013-02-20 23:12:00,
2013-02-20 18:18:00,20.0,11.8,30.21,West,278,5.0,24.0,70,0.00,,,0.00,0,Wunderground v.1.15,2013-02-20 23:18:00,
2013-02-20 18:24:00,20.0,11.8,30.21,WNW,286,5.0,24.0,70,0.00,,,0.00,0,Wunderground v.1.15,2013-02-20 23:24:00,
2013-02-20 18:30:00,19.9,12.0,30.21,SW,236,4.0,4.0,71,0.00,,,0.00,0,Wunderground v.1.15,2013-02-20 23:30:00,
2013-02-20 18:36:00,19.8,12.5,30.21,NW,317,4.0,24.0,73,0.00,,,0.00,0,Wunderground v.1.15,2013-02-20 23:36:00,
2013-02-20 18:42:00,19.7,12.4,30.21,WNW,284,4.0,24.0,73,0.00,,,0.00,0,Wunderground v.1.15,2013-02-20 23:42:00,
2013-02-20 18:48:00,19.6,12.3,30.21,WNW,300,3.0,24.0,73,0.00,,,0.00,0,Wunderground v.1.15,2013-02-20 23:48:00,
2013-02-20 18:54:00,19.6,11.7,30.22,NW,313,4.0,24.0,71,0.00,,,0.00,0,Wunderground v.1.15,2013-02-20 23:54:00,
2013-02-20 19:00:00,19.7,11.8,30.22,West,278,4.0,24.0,71,0.00,,,0.00,0,Wunderground v.1.15,2013-02-21 00:00:00,
2013-02-20 19:06:00,19.8,11.3,30.22,NNW,338,4.0,24.0,69,0.00,,,0.00,0,Wunderground v.1.15,2013-02-21 00:06:00,
2013-02-20 19:12:00,19.7,11.2,30.21,WNW,283,3.0,24.0,69,0.00,,,0.00,0,Wunderground v.1.15,2013-02-21 00:12:00,
2013-02-20 19:18:00,19.7,10.8,30.21,WNW,302,2.0,24.0,68,0.00,,,0.00,0,Wunderground v.1.15,2013-02-21 00:18:00,
2013-02-20 19:24:00,19.7,10.8,30.21,WSW,257,3.0,24.0,68,0.00,,,0.00,0,Wunderground v.1.15,2013-02-21 00:24:00,
2013-02-20 19:30:00,19.7,10.8,30.21,West,274,2.0,24.0,68,0.00,,,0.00,0,Wunderground v.1.15,2013-02-21 00:30:00,
2013-02-20 19:36:00,19.6,10.7,30.21,NW,323,3.0,24.0,68,0.00,,,0.00,0,Wunderground v.1.15,2013-02-21 00:36:00,
2013-02-20 19:42:00,19.5,10.6,30.21,WNW,296,3.0,24.0,68,0.00,,,0.00,0,Wunderground v.1.15,2013-02-21 00:42:00,
2013-02-20 19:48:00,19.5,10.6,30.21,WNW,290,1.0,24.0,68,0.00,,,0.00,0,Wunderground v.1.15,2013-02-21 00:48:00,
2013-02-20 19:54:00,19.4,10.9,30.21,West,273,1.0,24.0,69,0.00,,,0.00,0,Wunderground v.1.15,2013-02-21 00:54:00,
2013-02-20 20:00:00,19.4,10.9,30.21,WSW,254,2.0,24.0,69,0.00,,,0.00,0,Wunderground v.1.15,2013-02-21 01:00:00,
2013-02-20 20:06:00,19.5,11.0,30.21,NW,305,3.0,24.0,69,0.00,,,0.00,0,Wunderground v.1.15,2013-02-21 01:06:00,
2013-02-20 20:12:00,19.5,11.0,30.21,West,263,4.0,8.0,69,0.00,,,0.00,0,Wunderground v.1.15,2013-02-21 01:12:00,
2013-02-20 20:18:00,19.5,11.0,30.21,WNW,300,4.0,24.0,69,0.00,,,0.00,0,Wunderground v.1.15,2013-02-21 01:18:00,
2013-02-20 20:24:00,19.5,11.3,30.21,NW,305,3.0,24.0,70,0.00,,,0.00,0,Wunderground v.1.15,2013-02-21 01:24:00,
2013-02-20 20:30:00,19.6,11.4,30.21,West,272,4.0,24.0,70,0.00,,,0.00,0,Wunderground v.1.15,2013-02-21 01:30:00,
2013-02-20 20:36:00,19.6,11.4,30.21,WSW,254,5.0,24.0,70,0.00,,,0.00,0,Wunderground v.1.15,2013-02-21 01:36:00,
2013-02-20 20:42:00,19.5,11.3,30.21,WNW,290,4.0,24.0,70,0.00,,,0.00,0,Wunderground v.1.15,2013-02-21 01:42:00,
2013-02-20 20:48:00,19.5,11.3,30.22,West,273,4.0,24.0,70,0.00,,,0.00,0,Wunderground v.1.15,2013-02-21 01:48:00,
2013-02-20 20:54:00,19.5,11.6,30.22,WSW,250,5.0,24.0,71,0.00,,,0.00,0,Wunderground v.1.15,2013-02-21 01:54:00,
2013-02-20 21:00:00,19.5,11.9,30.22,NW,304,4.0,24.0,72,0.00,,,0.00,0,Wunderground v.1.15,2013-02-21 02:00:00,
2013-02-20 21:06:00,19.5,11.6,30.22,West,273,3.0,24.0,71,0.00,,,0.00,0,Wunderground v.1.15,2013-02-21 02:06:00,
2013-02-20 21:12:00,19.5,11.6,30.22,WNW,289,3.0,24.0,71,0.00,,,0.00,0,Wunderground v.1.15,2013-02-21 02:12:00,
2013-02-20 21:18:00,19.5,11.9,30.22,West,261,3.0,24.0,72,0.00,,,0.00,0,Wunderground v.1.15,2013-02-21 02:18:00,
2013-02-20 21:24:00,19.5,11.9,30.22,WNW,292,4.0,24.0,72,0.00,,,0.00,0,Wunderground v.1.15,2013-02-21 02:24:00,
2013-02-20 21:30:00,19.5,11.9,30.22,NW,311,4.0,24.0,72,0.00,,,0.00,0,Wunderground v.1.15,2013-02-21 02:30:00,
2013-02-20 21:36:00,19.4,12.2,30.22,WNW,301,4.0,24.0,73,0.00,,,0.00,0,Wunderground v.1.15,2013-02-21 02:36:00,
2013-02-20 21:42:00,19.4,12.5,30.22,West,279,4.0,24.0,74,0.00,,,0.00,0,Wunderground v.1.15,2013-02-21 02:42:00,
2013-02-20 21:48:00,19.3,12.4,30.23,WSW,248,4.0,24.0,74,0.00,,,0.00,0,Wunderground v.1.15,2013-02-21 02:48:00,
2013-02-20 21:54:00,19.3,12.4,30.22,WNW,292,4.0,24.0,74,0.00,,,0.00,0,Wunderground v.1.15,2013-02-21 02:54:00,
2013-02-20 22:00:00,19.3,12.7,30.22,West,269,4.0,24.0,75,0.00,,,0.00,0,Wunderground v.1.15,2013-02-21 03:00:00,
2013-02-20 22:06:00,19.3,12.4,30.22,NNE,26,4.0,24.0,74,0.00,,,0.00,0,Wunderground v.1.15,2013-02-21 03:06:00,